createdAt,value
2018-06-21T00:03:09.164Z,91.70
2018-06-21T00:08:03.698Z,92.00
2018-06-21T00:12:58.775Z,92.50
2018-06-21T00:17:53.324Z,92.50
2018-06-21T00:22:47.923Z,92.80
2018-06-21T00:27:42.526Z,93.00
2018-06-21T00:32:37.468Z,93.50
2018-06-21T00:37:32.117Z,93.20
2018-06-21T00:42:26.853Z,93.40
2018-06-21T00:47:21.432Z,93.50
2018-06-21T00:52:15.970Z,94.10
2018-06-21T00:57:10.476Z,94.10
2018-06-21T01:02:04.945Z,94.30
2018-06-21T01:06:59.434Z,94.60
2018-06-21T01:11:53.885Z,95.00
2018-06-21T01:16:48.430Z,95.30
2018-06-21T01:21:42.953Z,95.50
2018-06-21T01:26:37.483Z,95.60
2018-06-21T01:31:31.986Z,95.90
2018-06-21T01:36:26.589Z,95.80
2018-06-21T01:41:21.097Z,95.90
2018-06-21T01:46:15.561Z,95.80
2018-06-21T01:51:09.989Z,95.20
2018-06-21T01:56:04.532Z,95.60
2018-06-21T02:00:59.129Z,95.70
2018-06-21T02:05:53.598Z,95.80
2018-06-21T02:10:48.069Z,96.10
2018-06-21T02:15:42.545Z,96.40
2018-06-21T02:20:37.020Z,96.50
2018-06-21T02:25:31.624Z,96.50
2018-06-21T02:30:26.086Z,96.60
2018-06-21T02:35:20.545Z,96.60
2018-06-21T02:40:15.056Z,96.70
2018-06-21T02:45:09.571Z,96.90
2018-06-21T02:50:04.163Z,97.10
2018-06-21T02:54:58.646Z,97.30
2018-06-21T02:59:53.161Z,97.20
2018-06-21T03:04:47.605Z,97.50
2018-06-21T03:09:42.052Z,97.60
2018-06-21T03:14:36.508Z,97.50
2018-06-21T03:19:30.976Z,97.60
2018-06-21T03:24:25.765Z,97.80
2018-06-21T03:34:14.418Z,97.30
2018-06-21T03:39:08.965Z,97.60
2018-06-21T03:44:03.388Z,97.80
2018-06-21T03:48:57.891Z,97.80
2018-06-21T03:53:52.468Z,97.80
2018-06-21T03:58:47.088Z,97.50
2018-06-21T04:03:41.821Z,95.70
2018-06-21T04:08:36.293Z,93.70
2018-06-21T04:13:30.812Z,91.50
2018-06-21T04:18:29.540Z,89.70
2018-06-21T04:23:24.107Z,86.70
2018-06-21T04:28:18.590Z,84.70
2018-06-21T04:33:13.163Z,80.80
2018-06-21T04:38:07.677Z,77.20
2018-06-21T04:43:02.180Z,73.70
2018-06-21T04:47:56.629Z,71.20
2018-06-21T04:52:51.097Z,68.20
2018-06-21T04:57:45.573Z,66.20
2018-06-21T05:02:40.007Z,64.60
2018-06-21T05:07:34.480Z,59.90
2018-06-21T05:12:28.998Z,59.30
2018-06-21T05:17:23.709Z,58.00
2018-06-21T05:22:18.165Z,59.50
2018-06-21T05:27:12.730Z,63.10
2018-06-21T05:32:07.261Z,60.20
2018-06-21T05:37:01.731Z,59.80
2018-06-21T05:41:56.534Z,57.40
2018-06-21T05:46:50.952Z,56.10
2018-06-21T05:51:45.660Z,56.20
2018-06-21T05:56:40.156Z,56.20
2018-06-21T06:01:35.771Z,56.80
2018-06-21T06:06:31.074Z,56.40
2018-06-21T06:11:26.583Z,56.50
2018-06-21T06:16:21.211Z,56.70
2018-06-21T06:21:16.002Z,55.60
2018-06-21T06:26:11.576Z,56.40
2018-06-21T06:31:07.078Z,59.30
2018-06-21T06:36:01.855Z,64.20
2018-06-21T06:40:57.192Z,69.10
2018-06-21T06:55:03.436Z,73.70
2018-06-21T06:59:58.199Z,71.80
2018-06-21T07:04:53.366Z,70.40
2018-06-21T07:09:47.857Z,69.90
2018-06-21T07:14:42.864Z,70.30
2018-06-21T07:19:38.481Z,69.50
2018-06-21T07:24:33.248Z,69.70
2018-06-21T07:29:27.708Z,72.50
2018-06-21T07:34:22.558Z,71.90
2018-06-21T07:39:17.132Z,70.50
2018-06-21T07:44:12.253Z,69.20
2018-06-21T07:49:06.884Z,69.40
2018-06-21T07:54:01.430Z,68.50
2018-06-21T07:58:55.995Z,68.00
2018-06-21T08:03:57.312Z,69.90
2018-06-21T08:08:55.249Z,68.10
2018-06-21T08:13:50.019Z,67.90
2018-06-21T08:18:55.026Z,68.00
2018-06-21T08:23:50.057Z,67.00
2018-06-21T08:28:44.747Z,66.10
2018-06-21T08:33:39.693Z,67.00
2018-06-21T08:38:35.090Z,66.30
2018-06-21T08:43:29.575Z,64.60
2018-06-21T08:48:24.042Z,64.90
2018-06-21T08:53:18.581Z,65.30
2018-06-21T08:58:25.421Z,65.00
2018-06-21T09:03:22.225Z,64.40
2018-06-21T09:08:17.437Z,64.10
2018-06-21T09:13:11.975Z,64.60
2018-06-21T09:18:15.604Z,65.20
2018-06-21T09:23:10.500Z,64.80
2018-06-21T09:28:05.320Z,63.80
2018-06-21T09:32:59.888Z,63.80
2018-06-21T09:37:59.712Z,62.80
2018-06-21T09:42:59.652Z,63.90
2018-06-21T09:47:59.529Z,62.40
2018-06-21T09:52:54.037Z,62.20
2018-06-21T09:57:48.491Z,62.80
2018-06-21T10:02:45.777Z,62.60
2018-06-21T10:07:51.459Z,62.50
2018-06-21T10:12:48.496Z,60.50
2018-06-21T10:17:43.337Z,61.30
2018-06-21T10:22:37.815Z,60.00
2018-06-21T10:27:32.246Z,58.90
2018-06-21T10:32:26.730Z,58.00
2018-06-21T10:37:21.135Z,57.60
2018-06-21T10:42:21.625Z,56.50
2018-06-21T10:47:16.508Z,56.70
2018-06-21T10:52:11.050Z,55.80
2018-06-21T10:57:06.897Z,56.50
2018-06-21T11:02:01.471Z,55.60
2018-06-21T11:11:50.917Z,55.70
2018-06-21T11:16:46.520Z,54.70
2018-06-21T11:26:35.659Z,54.20
2018-06-21T11:31:30.512Z,53.00
2018-06-21T11:36:25.238Z,50.80
2018-06-21T11:41:19.636Z,51.30
2018-06-21T11:46:14.088Z,48.90
2018-06-21T11:51:08.525Z,48.30
2018-06-21T11:56:03.352Z,48.90
2018-06-21T12:00:58.663Z,48.00
2018-06-21T12:05:53.695Z,47.70
2018-06-21T12:10:49.718Z,47.40
2018-06-21T12:15:45.447Z,46.50
2018-06-21T12:20:40.006Z,45.60
2018-06-21T12:25:34.832Z,43.10
2018-06-21T12:30:29.756Z,43.80
2018-06-21T12:35:25.090Z,43.90
2018-06-21T12:40:20.634Z,42.50
2018-06-21T12:45:15.053Z,43.20
2018-06-21T12:50:09.482Z,44.70
2018-06-21T12:55:04.365Z,41.60
2018-06-21T12:59:59.668Z,42.00
2018-06-21T13:04:54.555Z,43.70
2018-06-21T13:10:06.360Z,48.30
2018-06-21T13:15:02.265Z,49.10
2018-06-21T13:19:57.767Z,49.80
2018-06-21T13:24:53.357Z,51.00
2018-06-21T13:29:49.081Z,51.00
2018-06-21T13:34:44.574Z,52.70
2018-06-21T13:39:46.723Z,50.80
2018-06-21T13:44:42.434Z,50.10
2018-06-21T13:49:46.018Z,49.20
2018-06-21T13:54:41.190Z,49.10
2018-06-21T13:59:35.666Z,49.50
2018-06-21T14:04:30.130Z,50.60
2018-06-21T14:09:27.553Z,51.40
2018-06-21T14:14:22.005Z,52.60
2018-06-21T14:19:16.540Z,51.50
2018-06-21T14:24:12.855Z,50.90
2018-06-21T14:29:08.020Z,51.10
2018-06-21T14:34:02.477Z,51.60
2018-06-21T14:38:57.133Z,52.20
2018-06-21T14:43:51.588Z,52.10
2018-06-21T14:48:46.099Z,52.70
2018-06-21T14:53:46.256Z,51.70
2018-06-21T14:58:41.548Z,51.20
2018-06-21T15:03:36.023Z,51.90
2018-06-21T15:08:30.486Z,52.10
2018-06-21T15:13:24.921Z,51.70
2018-06-21T15:18:19.800Z,51.90
2018-06-21T15:23:14.311Z,50.80
2018-06-21T15:28:08.688Z,50.00
2018-06-21T15:33:03.168Z,51.00
2018-06-21T15:37:57.721Z,50.80
2018-06-21T15:42:52.223Z,51.00
2018-06-21T15:47:46.802Z,50.30
2018-06-21T15:57:36.318Z,50.30
2018-06-21T16:07:26.004Z,49.30
2018-06-21T16:12:20.608Z,49.40
2018-06-21T16:17:23.127Z,49.70
2018-06-21T16:22:17.704Z,49.30
2018-06-21T16:27:12.298Z,49.70
2018-06-21T16:32:06.992Z,49.10
2018-06-21T16:37:01.656Z,50.00
2018-06-21T16:41:56.224Z,50.10
2018-06-21T16:46:50.764Z,50.50
2018-06-21T16:51:45.260Z,51.00
2018-06-21T16:56:39.903Z,51.30
2018-06-21T17:11:36.481Z,52.00
2018-06-21T17:16:31.057Z,54.00
2018-06-21T17:21:25.600Z,55.70
2018-06-21T17:26:20.218Z,56.50
2018-06-21T17:31:14.773Z,57.20
2018-06-21T17:36:09.386Z,58.30
2018-06-21T17:41:04.047Z,58.80
2018-06-21T17:45:58.724Z,59.20
2018-06-21T17:50:53.262Z,60.60
2018-06-21T17:55:47.962Z,61.90
2018-06-21T18:00:42.747Z,61.50
2018-06-21T18:05:37.500Z,62.90
2018-06-21T18:10:32.115Z,63.10
2018-06-21T18:15:26.813Z,63.90
2018-06-21T18:20:21.422Z,63.40
2018-06-21T18:25:16.757Z,64.00
2018-06-21T18:30:11.567Z,64.60
2018-06-21T18:35:06.156Z,65.10
2018-06-21T18:40:00.877Z,66.00
2018-06-21T18:44:55.561Z,66.50
2018-06-21T18:49:50.334Z,66.90
2018-06-21T18:54:44.905Z,67.00
2018-06-21T18:59:39.476Z,67.10
2018-06-21T19:04:34.063Z,67.80
2018-06-21T19:09:33.760Z,67.80
2018-06-21T19:14:34.949Z,68.20
2018-06-21T19:19:29.611Z,68.80
2018-06-21T19:24:24.066Z,69.30
2018-06-21T19:29:18.663Z,70.00
2018-06-21T19:34:13.249Z,70.10
2018-06-21T19:39:10.560Z,70.00
2018-06-21T19:44:06.009Z,69.60
2018-06-21T19:49:00.707Z,69.90
2018-06-21T19:53:55.913Z,70.00
2018-06-21T19:58:50.809Z,70.80
2018-06-21T20:03:45.717Z,71.20
2018-06-21T20:08:40.240Z,70.50
2018-06-21T20:13:45.347Z,69.80
2018-06-21T20:18:39.994Z,68.40
2018-06-21T20:23:34.597Z,69.30
2018-06-21T20:28:29.292Z,69.00
2018-06-21T20:33:23.964Z,69.20
2018-06-21T20:38:22.372Z,68.70
2018-06-21T20:43:16.926Z,68.20
2018-06-21T20:48:11.441Z,67.60
2018-06-21T20:53:06.033Z,67.90
2018-06-21T20:58:00.680Z,66.50
2018-06-21T21:02:55.252Z,66.40
2018-06-21T21:07:53.135Z,66.30
2018-06-21T21:12:47.769Z,66.60
2018-06-21T21:17:42.673Z,66.80
2018-06-21T21:22:38.496Z,67.00
2018-06-21T21:27:33.086Z,67.00
2018-06-21T21:32:27.952Z,66.20
2018-06-21T21:37:22.933Z,65.10
2018-06-21T21:42:17.968Z,64.20
2018-06-21T21:47:12.514Z,64.80
2018-06-21T21:52:07.171Z,61.20
2018-06-21T21:57:01.876Z,60.00
2018-06-21T22:01:56.573Z,58.80
2018-06-21T22:06:51.096Z,58.20
2018-06-21T22:11:45.645Z,57.60
2018-06-21T22:16:40.227Z,57.90
2018-06-21T22:21:34.784Z,57.20
2018-06-21T22:26:29.228Z,57.30
2018-06-21T22:31:23.745Z,57.70
2018-06-21T22:36:18.293Z,56.90
2018-06-21T22:41:12.841Z,57.20
2018-06-21T22:46:08.170Z,58.10
2018-06-21T22:51:02.639Z,56.00
2018-06-21T22:55:57.128Z,55.90
2018-06-21T23:00:51.617Z,55.50
2018-06-21T23:05:46.159Z,55.20
2018-06-21T23:10:40.737Z,55.20
2018-06-21T23:20:29.540Z,54.60
2018-06-21T23:25:24.117Z,54.90
2018-06-21T23:30:18.578Z,54.70
2018-06-21T23:35:13.153Z,55.20
2018-06-21T23:40:07.674Z,55.30
2018-06-21T23:45:02.147Z,55.30
2018-06-21T23:49:56.689Z,55.30
2018-06-21T23:54:51.206Z,55.50
2018-06-21T23:59:45.737Z,56.30
